Hub


Voltar

 INFORMAÇÕES METEOROLÓGICAS

METAR FOR LPMA


ADDS - METARS form results

(2345 UTC 19 August 2019)
Data provider http://aviationweather.gov/metar/data/
 
METAR text: LPMA 192330Z 04009KT 010V070 9999 FEW016 23/18 Q1021
Conditions at: LPMA (FUNCHAL/MADEIRA , PT) observed 2330 UTC 19 August 2019
Temperature: 23.0°C (73°F)
Dewpoint: 18.0°C (64°F) [RH = 73%]
Pressure (altimeter): 30.15 inches Hg (1021.0 mb)
Winds: from the NE (40 degrees) at 10 MPH (9 knots; 4.6 m/s)
Visibility: 6 or more miles (10+ km)
Ceiling: at least 12,000 feet AGL
Clouds: few clouds at 1600 feet AGL
Weather: no significant weather observed at this time

METAR text: LPMA 192300Z 04009KT 010V080 9999 FEW016 23/18 Q1021
Conditions at: LPMA (FUNCHAL/MADEIRA , PT) observed 2300 UTC 19 August 2019
Temperature: 23.0°C (73°F)
Dewpoint: 18.0°C (64°F) [RH = 73%]
Pressure (altimeter): 30.15 inches Hg (1021.0 mb)
Winds: from the NE (40 degrees) at 10 MPH (9 knots; 4.6 m/s)
Visibility: 6 or more miles (10+ km)
Ceiling: at least 12,000 feet AGL
Clouds: few clouds at 1600 feet AGL
Weather: no significant weather observed at this time

Forecast for: LPMA (FUNCHAL/MADEIRA , PT)
Text: TAF LPMA 192300Z 2000/2024 03007KT 9999 SCT015
Forecast period: 0000 to 0900 UTC 20 August 2019
Forecast type: FROM: standard forecast or significant change
Winds: from the NNE (30 degrees) at 8 MPH (7 knots; 3.6 m/s)
Visibility: 6 or more miles 10+ km)
Ceiling: at least 12,000 feet AGL
Clouds: scattered clouds at 1500 feet AGL
Weather: no significant weather forecast for this period
Text: TEMPO 2000/2009 BKN013
Forecast period: 0000 to 0900 UTC 20 August 2019
Forecast type: TEMPORARY: The following changes expected for less than half the time period
Visibility: missing
Ceiling: 1300 feet AGL
Clouds: broken clouds at 1300 feet AGL
Weather: no significant weather forecast for this period
Text: BECMG 2009/2013 03012KT
Forecast period: 0900 UTC 20 August 2019 to 0000 UTC 21 August 2019
Forecast type: BECOMING: Conditions expected to become as follows by 1300 UTC 20 August 2019
Winds: from the NNE (30 degrees) at 14 MPH (12 knots; 6.2 m/s)
Visibility: 6 or more miles 10+ km)
Ceiling: at least 12,000 feet AGL
Clouds: scattered clouds at 1500 feet AGL
Weather: no significant weather forecast for this period


 MAPA DO AEROPORTO


 INFORMAÇÕES DA PISTA

Pista 05 Tamanho da pista 9110 ft Largura da pista 148 ft
Elevação da pista 147 ft Ranhura da pista 480 ft Proa da pista 45
Pista 23 Tamanho da pista 9110 ft Largura da pista 148 ft
Elevação da pista 192 ft Ranhura da pista 490 ft Proa da pista 225

 FREQUÊNCIAS DO AEROPORTO

Tipo APP Nome APP Frequência 119.2 MHZ
Tipo TWR Nome TWR Frequência 118.35 MHZ

 AUXÍLIOS DE NAVEGAÇÃO PRÓXIMOS AO AEROPORTO

Tipo VOR-DME Nome Madeira Frequência 112200 KHZ
Tipo NDB Nome Madeira Frequência 318 KHZ